CheckWX is a tool to help pilots better visualize weather data.  It is not intended as a substitute for an official pre-flight weather briefing.

05:13:46 UTC

KBMC METAR
Brigham City Airport
Brigham City, Utah, USA
Current

19 mins ago

KBMC 240455Z AUTO 18007KT 10SM SCT060 OVC070 00/M09 A3020 RMK AO1 T00011094 403771145
Observed
Feb-24 @ 04:55 UTC
Wind
  • 180° at 7 KTS
Visibility
10 SM
Flight Rules
VFR
Cloud Levels
  • Scattered at 6,000' AGL
  • Overcast at 7,000' AGL
Temperature
C / 32°F
Dewpoint
-9°C / 16°F
Humidity
51%
Altimeter
30.2" Hg
Pressure
1022.72 hPa
Previous

39 mins ago

KBMC 240435Z AUTO 00000KT 10SM OVC070 00/M09 A3021 RMK AO1 T00041091
Observed
Feb-24 @ 04:35 UTC
Visibility
10 SM
Flight Rules
VFR
Cloud Levels
  • Overcast at 7,000' AGL
Temperature
C / 32°F
Dewpoint
-9°C / 16°F
Humidity
51%
Altimeter
30.21" Hg
Pressure
1023.02 hPa
Previous

59 mins ago

KBMC 240415Z AUTO 21003KT 10SM SCT065 OVC075 00/M09 A3021 RMK AO1 T00031091
Observed
Feb-24 @ 04:15 UTC
Wind
  • 210° at 3 KTS
Visibility
10 SM
Flight Rules
VFR
Cloud Levels
  • Scattered at 6,500' AGL
  • Overcast at 7,500' AGL
Temperature
C / 32°F
Dewpoint
-9°C / 16°F
Humidity
51%
Altimeter
30.21" Hg
Pressure
1023.02 hPa